Airfield :
LOGIN :

Register | Disclaimer

   EN    FR    IT 

 










Legend :    VFR   Marginal VFR   IFR   Intensive IFR   Very Intensive IFR
Visi :
Ceiling :
>= 8 km
>= 3000ft
5 to 8 km
1000 to 3000 ft
1500m to 5 km
500 to 1000 ft
800 to 1500m
200 to 500 ft
< 800m
< 200 ft
Symbols :   Thunderstorms  Fog  Heavy snow  Heavy precipitations  Wind > 20 kt
SIGMETs :     Misc.  Thunderstorms  Icing  Turbulence  Mountain Waves  Volcanic Ashes






- Airport Elevation : 40 ft
- IATA code : RMI


LIPR - Federico Fellini Int. Rimini

CURRENT METAR :
  • 180620Z 01003KT 320V040 CAVOK 23/14 Q1018

EXPIRED METARs :
  • 180550Z VRB01KT CAVOK 22/14 Q1018
  • 180520Z VRB01KT CAVOK 20/13 Q1017
  • 180450Z AUTO 21002KT 9999 NCD 19/13 Q1017
  • 180420Z AUTO VRB01KT 9999 NCD 17/13 Q1017
  • 180350Z AUTO 21002KT 9999 NCD 17/12 Q1017
  • 180320Z AUTO 22002KT 9999 NCD 17/12 Q1017
  • 180250Z AUTO VRB02KT 9999 NCD 17/12 Q1017
  • 180220Z AUTO 21003KT 170V230 9999 NCD 18/12 Q1016
  • 180150Z AUTO 22003KT 9999 NCD 18/12 Q1016

TAF TAF LIPR
Valid from the 18 at 06:00 until the 19 at 06:00 UTC


180500Z 1806/1906 VRB05KT CAVOK
BECMG 1810/1812 09013KT
BECMG 1818/1820 VRB05KT



MET'MAP, your aeronautical weather chart ! - Copyright ORBIFLY December 2007 - Disclaimer

ORBIFLY MET'MAP TEAM :

Programming & Development : Alexandra Zaïnal
Original concept : Baudouin d'Aumeries
Technical & hardware support : Manuel Goepfert
Assistance : Marc-Olivier Méhu




SOURCES & CREDITS :

   NOAA